sensor_id;sensor_type;location;lat;lon;timestamp;temperature;humidity
75296;DHT22;64623;44.738;37.804;2022-12-10T00:01:53;13.84;112.95
75296;DHT22;64623;44.738;37.804;2022-12-10T00:04:22;13.83;113.47
75296;DHT22;64623;44.738;37.804;2022-12-10T00:06:51;13.83;113.97
75296;DHT22;64623;44.738;37.804;2022-12-10T00:09:20;13.83;114.49
75296;DHT22;64623;44.738;37.804;2022-12-10T00:11:50;13.82;115.13
75296;DHT22;64623;44.738;37.804;2022-12-10T00:14:19;13.82;115.78
75296;DHT22;64623;44.738;37.804;2022-12-10T00:16:48;13.83;115.54
75296;DHT22;64623;44.738;37.804;2022-12-10T00:19:18;13.83;116.35
75296;DHT22;64623;44.738;37.804;2022-12-10T00:21:47;13.84;116.83
75296;DHT22;64623;44.738;37.804;2022-12-10T00:24:16;13.84;117.57
75296;DHT22;64623;44.738;37.804;2022-12-10T00:26:45;13.86;117.86
75296;DHT22;64623;44.738;37.804;2022-12-10T00:29:15;13.88;118.08
75296;DHT22;64623;44.738;37.804;2022-12-10T00:31:44;13.85;118.26
75296;DHT22;64623;44.738;37.804;2022-12-10T00:34:13;13.88;117.54
75296;DHT22;64623;44.738;37.804;2022-12-10T00:36:47;13.86;118.10
75296;DHT22;64623;44.738;37.804;2022-12-10T00:39:19;13.89;118.99
75296;DHT22;64623;44.738;37.804;2022-12-10T00:41:48;13.91;117.92
75296;DHT22;64623;44.738;37.804;2022-12-10T00:44:17;13.88;118.99
75296;DHT22;64623;44.738;37.804;2022-12-10T00:46:47;13.88;118.99
75296;DHT22;64623;44.738;37.804;2022-12-10T00:49:17;13.85;117.50
75296;DHT22;64623;44.738;37.804;2022-12-10T00:51:47;13.85;115.80
75296;DHT22;64623;44.738;37.804;2022-12-10T00:54:16;13.85;115.22
75296;DHT22;64623;44.738;37.804;2022-12-10T00:56:45;13.89;117.11
75296;DHT22;64623;44.738;37.804;2022-12-10T00:59:15;13.88;118.43
75296;DHT22;64623;44.738;37.804;2022-12-10T01:01:45;13.88;118.51
75296;DHT22;64623;44.738;37.804;2022-12-10T01:04:17;13.86;116.06
75296;DHT22;64623;44.738;37.804;2022-12-10T01:06:49;13.90;114.79
75296;DHT22;64623;44.738;37.804;2022-12-10T01:09:29;13.92;115.06
75296;DHT22;64623;44.738;37.804;2022-12-10T01:12:01;13.92;115.45
75296;DHT22;64623;44.738;37.804;2022-12-10T01:14:33;13.93;115.98
75296;DHT22;64623;44.738;37.804;2022-12-10T01:17:04;13.93;116.73
75296;DHT22;64623;44.738;37.804;2022-12-10T01:19:34;13.92;117.20
75296;DHT22;64623;44.738;37.804;2022-12-10T01:22:04;13.93;118.07
75296;DHT22;64623;44.738;37.804;2022-12-10T01:24:33;13.90;117.94
75296;DHT22;64623;44.738;37.804;2022-12-10T01:27:03;13.90;117.63
75296;DHT22;64623;44.738;37.804;2022-12-10T01:29:33;13.93;117.37
75296;DHT22;64623;44.738;37.804;2022-12-10T01:32:02;13.93;116.99
75296;DHT22;64623;44.738;37.804;2022-12-10T01:34:31;13.94;117.60
75296;DHT22;64623;44.738;37.804;2022-12-10T01:37:00;13.95;117.70
75296;DHT22;64623;44.738;37.804;2022-12-10T01:39:32;13.94;117.05
75296;DHT22;64623;44.738;37.804;2022-12-10T01:42:18;13.94;115.77
75296;DHT22;64623;44.738;37.804;2022-12-10T01:47:16;13.93;116.33
75296;DHT22;64623;44.738;37.804;2022-12-10T01:49:45;13.94;115.97
75296;DHT22;64623;44.738;37.804;2022-12-10T01:52:14;13.93;115.20
75296;DHT22;64623;44.738;37.804;2022-12-10T01:54:45;13.92;115.03
75296;DHT22;64623;44.738;37.804;2022-12-10T01:57:21;13.92;113.99
75296;DHT22;64623;44.738;37.804;2022-12-10T02:00:00;13.93;114.64
75296;DHT22;64623;44.738;37.804;2022-12-10T02:02:56;13.93;118.45
75296;DHT22;64623;44.738;37.804;2022-12-10T02:05:35;13.94;118.99
75296;DHT22;64623;44.738;37.804;2022-12-10T02:11:29;13.89;118.99
75296;DHT22;64623;44.738;37.804;2022-12-10T02:17:03;13.85;118.99
75296;DHT22;64623;44.738;37.804;2022-12-10T02:22:18;13.84;118.99
75296;DHT22;64623;44.738;37.804;2022-12-10T02:24:51;13.84;118.99
75296;DHT22;64623;44.738;37.804;2022-12-10T02:27:49;13.85;118.99
75296;DHT22;64623;44.738;37.804;2022-12-10T02:30:21;13.84;118.99
75296;DHT22;64623;44.738;37.804;2022-12-10T02:32:50;13.84;118.99
75296;DHT22;64623;44.738;37.804;2022-12-10T02:35:25;13.81;118.99
75296;DHT22;64623;44.738;37.804;2022-12-10T02:38:02;13.82;118.99
75296;DHT22;64623;44.738;37.804;2022-12-10T02:40:35;13.82;118.99
75296;DHT22;64623;44.738;37.804;2022-12-10T02:43:08;13.81;118.99
75296;DHT22;64623;44.738;37.804;2022-12-10T02:45:38;13.83;118.99
75296;DHT22;64623;44.738;37.804;2022-12-10T02:48:09;13.84;118.99
75296;DHT22;64623;44.738;37.804;2022-12-10T02:50:43;13.82;118.99
75296;DHT22;64623;44.738;37.804;2022-12-10T02:53:12;13.81;118.99
75296;DHT22;64623;44.738;37.804;2022-12-10T03:04:00;13.82;118.99
75296;DHT22;64623;44.738;37.804;2022-12-10T03:06:41;13.83;118.99
75296;DHT22;64623;44.738;37.804;2022-12-10T03:09:23;13.82;118.99
75296;DHT22;64623;44.738;37.804;2022-12-10T03:11:59;13.80;118.99
75296;DHT22;64623;44.738;37.804;2022-12-10T03:14:31;13.79;118.99
75296;DHT22;64623;44.738;37.804;2022-12-10T03:17:03;13.80;118.99
75296;DHT22;64623;44.738;37.804;2022-12-10T03:19:37;13.79;118.99
75296;DHT22;64623;44.738;37.804;2022-12-10T03:22:11;13.80;118.99
75296;DHT22;64623;44.738;37.804;2022-12-10T03:24:42;13.81;118.99
75296;DHT22;64623;44.738;37.804;2022-12-10T03:27:13;13.80;118.99
75296;DHT22;64623;44.738;37.804;2022-12-10T03:29:49;13.80;118.99
75296;DHT22;64623;44.738;37.804;2022-12-10T03:32:21;13.80;118.99
75296;DHT22;64623;44.738;37.804;2022-12-10T03:34:51;13.78;118.99
75296;DHT22;64623;44.738;37.804;2022-12-10T03:37:22;13.78;118.99
75296;DHT22;64623;44.738;37.804;2022-12-10T03:39:51;13.79;118.99
75296;DHT22;64623;44.738;37.804;2022-12-10T03:42:20;13.79;118.99
75296;DHT22;64623;44.738;37.804;2022-12-10T03:44:50;13.79;118.99
75296;DHT22;64623;44.738;37.804;2022-12-10T03:47:20;13.79;118.99
75296;DHT22;64623;44.738;37.804;2022-12-10T03:49:49;13.78;118.99
75296;DHT22;64623;44.738;37.804;2022-12-10T03:52:18;13.78;118.99
75296;DHT22;64623;44.738;37.804;2022-12-10T03:54:47;13.80;118.99
75296;DHT22;64623;44.738;37.804;2022-12-10T03:57:16;13.80;118.99
75296;DHT22;64623;44.738;37.804;2022-12-10T03:59:45;13.82;118.99
75296;DHT22;64623;44.738;37.804;2022-12-10T04:02:14;13.81;118.99
75296;DHT22;64623;44.738;37.804;2022-12-10T04:04:43;13.83;118.99
75296;DHT22;64623;44.738;37.804;2022-12-10T04:07:12;13.81;118.99
75296;DHT22;64623;44.738;37.804;2022-12-10T04:09:41;13.82;118.99
75296;DHT22;64623;44.738;37.804;2022-12-10T04:12:10;13.82;118.99
75296;DHT22;64623;44.738;37.804;2022-12-10T04:14:40;13.82;118.99
75296;DHT22;64623;44.738;37.804;2022-12-10T04:17:27;13.80;118.99
75296;DHT22;64623;44.738;37.804;2022-12-10T04:19:56;13.81;118.99
75296;DHT22;64623;44.738;37.804;2022-12-10T04:22:26;13.81;118.99
75296;DHT22;64623;44.738;37.804;2022-12-10T04:25:14;13.79;118.99
75296;DHT22;64623;44.738;37.804;2022-12-10T04:28:01;13.79;118.99
75296;DHT22;64623;44.738;37.804;2022-12-10T04:30:30;13.80;118.99
75296;DHT22;64623;44.738;37.804;2022-12-10T04:32:59;13.79;118.99
75296;DHT22;64623;44.738;37.804;2022-12-10T04:35:28;13.79;118.99
75296;DHT22;64623;44.738;37.804;2022-12-10T04:37:58;13.78;118.99
75296;DHT22;64623;44.738;37.804;2022-12-10T04:40:26;13.78;118.99
75296;DHT22;64623;44.738;37.804;2022-12-10T04:42:56;13.77;118.99
75296;DHT22;64623;44.738;37.804;2022-12-10T04:45:26;13.77;118.99
75296;DHT22;64623;44.738;37.804;2022-12-10T04:47:55;13.79;118.99
75296;DHT22;64623;44.738;37.804;2022-12-10T04:50:25;13.79;118.99
75296;DHT22;64623;44.738;37.804;2022-12-10T04:52:54;13.78;118.99
75296;DHT22;64623;44.738;37.804;2022-12-10T04:55:24;13.79;118.99
75296;DHT22;64623;44.738;37.804;2022-12-10T04:57:53;13.78;118.99
75296;DHT22;64623;44.738;37.804;2022-12-10T05:00:24;13.77;118.99
75296;DHT22;64623;44.738;37.804;2022-12-10T05:02:57;13.79;118.99
75296;DHT22;64623;44.738;37.804;2022-12-10T05:05:27;13.79;118.99
75296;DHT22;64623;44.738;37.804;2022-12-10T05:07:57;13.79;118.99
75296;DHT22;64623;44.738;37.804;2022-12-10T05:10:26;13.78;118.99
75296;DHT22;64623;44.738;37.804;2022-12-10T05:12:56;13.77;118.99
75296;DHT22;64623;44.738;37.804;2022-12-10T05:15:25;13.77;118.99
75296;DHT22;64623;44.738;37.804;2022-12-10T05:17:55;13.77;118.99
75296;DHT22;64623;44.738;37.804;2022-12-10T05:20:24;13.80;118.99
75296;DHT22;64623;44.738;37.804;2022-12-10T05:22:54;13.79;118.99
75296;DHT22;64623;44.738;37.804;2022-12-10T05:25:42;13.80;118.99
75296;DHT22;64623;44.738;37.804;2022-12-10T05:28:23;13.80;118.99
75296;DHT22;64623;44.738;37.804;2022-12-10T05:30:53;13.79;118.99
75296;DHT22;64623;44.738;37.804;2022-12-10T05:33:23;13.81;118.99
75296;DHT22;64623;44.738;37.804;2022-12-10T05:36:11;13.79;118.99
75296;DHT22;64623;44.738;37.804;2022-12-10T05:38:41;13.81;118.99
75296;DHT22;64623;44.738;37.804;2022-12-10T05:41:13;13.82;118.99
75296;DHT22;64623;44.738;37.804;2022-12-10T05:43:48;13.82;118.99
75296;DHT22;64623;44.738;37.804;2022-12-10T05:46:21;13.88;118.99
75296;DHT22;64623;44.738;37.804;2022-12-10T05:48:54;13.86;118.99
75296;DHT22;64623;44.738;37.804;2022-12-10T05:51:26;13.92;118.99
75296;DHT22;64623;44.738;37.804;2022-12-10T05:53:58;13.90;118.99
75296;DHT22;64623;44.738;37.804;2022-12-10T05:56:28;13.92;118.99
75296;DHT22;64623;44.738;37.804;2022-12-10T05:58:59;13.96;118.99
75296;DHT22;64623;44.738;37.804;2022-12-10T06:01:46;13.92;118.99
75296;DHT22;64623;44.738;37.804;2022-12-10T06:04:15;13.94;118.99
75296;DHT22;64623;44.738;37.804;2022-12-10T06:06:44;13.94;118.99
75296;DHT22;64623;44.738;37.804;2022-12-10T06:09:15;13.96;118.21
75296;DHT22;64623;44.738;37.804;2022-12-10T06:11:44;13.96;117.09
75296;DHT22;64623;44.738;37.804;2022-12-10T06:14:13;14.01;116.18
75296;DHT22;64623;44.738;37.804;2022-12-10T06:16:43;14.03;115.14
75296;DHT22;64623;44.738;37.804;2022-12-10T06:19:15;14.06;115.32
75296;DHT22;64623;44.738;37.804;2022-12-10T06:21:45;14.04;113.50
75296;DHT22;64623;44.738;37.804;2022-12-10T06:24:14;14.08;113.92
75296;DHT22;64623;44.738;37.804;2022-12-10T06:26:45;14.06;114.74
75296;DHT22;64623;44.738;37.804;2022-12-10T06:29:32;14.06;114.47
75296;DHT22;64623;44.738;37.804;2022-12-10T06:32:04;14.08;115.66
75296;DHT22;64623;44.738;37.804;2022-12-10T06:34:34;14.10;116.57
75296;DHT22;64623;44.738;37.804;2022-12-10T06:37:06;14.10;116.44
75296;DHT22;64623;44.738;37.804;2022-12-10T06:39:36;14.11;117.34
75296;DHT22;64623;44.738;37.804;2022-12-10T06:42:11;14.11;117.89
75296;DHT22;64623;44.738;37.804;2022-12-10T06:44:42;14.12;118.46
75296;DHT22;64623;44.738;37.804;2022-12-10T06:47:12;14.17;118.50
75296;DHT22;64623;44.738;37.804;2022-12-10T06:49:45;14.14;118.69
75296;DHT22;64623;44.738;37.804;2022-12-10T06:52:14;14.12;118.99
75296;DHT22;64623;44.738;37.804;2022-12-10T06:54:47;14.07;118.99
75296;DHT22;64623;44.738;37.804;2022-12-10T06:57:16;14.12;118.99
75296;DHT22;64623;44.738;37.804;2022-12-10T06:59:47;14.14;118.99
75296;DHT22;64623;44.738;37.804;2022-12-10T07:02:17;14.21;118.99
75296;DHT22;64623;44.738;37.804;2022-12-10T07:04:47;14.21;118.99
75296;DHT22;64623;44.738;37.804;2022-12-10T07:07:16;14.23;118.99
75296;DHT22;64623;44.738;37.804;2022-12-10T07:09:50;14.28;118.99
75296;DHT22;64623;44.738;37.804;2022-12-10T07:12:26;14.35;118.99
75296;DHT22;64623;44.738;37.804;2022-12-10T07:14:56;14.39;118.61
75296;DHT22;64623;44.738;37.804;2022-12-10T07:17:26;14.41;117.08
75296;DHT22;64623;44.738;37.804;2022-12-10T07:20:11;14.49;114.82
75296;DHT22;64623;44.738;37.804;2022-12-10T07:22:43;14.87;109.35
75296;DHT22;64623;44.738;37.804;2022-12-10T07:25:13;15.73;95.04
75296;DHT22;64623;44.738;37.804;2022-12-10T07:27:43;16.90;84.19
75296;DHT22;64623;44.738;37.804;2022-12-10T07:30:13;17.83;74.89
75296;DHT22;64623;44.738;37.804;2022-12-10T07:32:43;18.00;72.64
75296;DHT22;64623;44.738;37.804;2022-12-10T07:35:13;18.63;69.20
75296;DHT22;64623;44.738;37.804;2022-12-10T07:37:43;19.05;67.47
75296;DHT22;64623;44.738;37.804;2022-12-10T07:40:12;18.92;65.46
75296;DHT22;64623;44.738;37.804;2022-12-10T07:42:42;19.26;65.29
75296;DHT22;64623;44.738;37.804;2022-12-10T07:45:11;19.54;61.97
75296;DHT22;64623;44.738;37.804;2022-12-10T07:47:41;19.81;61.89
75296;DHT22;64623;44.738;37.804;2022-12-10T07:50:10;20.00;60.43
75296;DHT22;64623;44.738;37.804;2022-12-10T07:52:43;20.19;59.27
75296;DHT22;64623;44.738;37.804;2022-12-10T07:55:28;20.53;58.91
75296;DHT22;64623;44.738;37.804;2022-12-10T07:58:22;20.84;56.40
75296;DHT22;64623;44.738;37.804;2022-12-10T08:00:52;20.54;57.99
75296;DHT22;64623;44.738;37.804;2022-12-10T08:03:22;20.95;57.06
75296;DHT22;64623;44.738;37.804;2022-12-10T08:06:04;21.18;56.61
75296;DHT22;64623;44.738;37.804;2022-12-10T08:08:34;20.91;56.59
75296;DHT22;64623;44.738;37.804;2022-12-10T08:11:05;20.90;57.10
75296;DHT22;64623;44.738;37.804;2022-12-10T08:13:35;21.45;53.56
75296;DHT22;64623;44.738;37.804;2022-12-10T08:16:13;20.41;56.58
75296;DHT22;64623;44.738;37.804;2022-12-10T08:18:46;19.99;58.10
75296;DHT22;64623;44.738;37.804;2022-12-10T08:21:19;20.45;55.62
75296;DHT22;64623;44.738;37.804;2022-12-10T08:23:49;20.65;55.43
75296;DHT22;64623;44.738;37.804;2022-12-10T08:26:22;20.73;55.04
75296;DHT22;64623;44.738;37.804;2022-12-10T08:28:53;20.13;57.40
75296;DHT22;64623;44.738;37.804;2022-12-10T08:31:27;19.89;58.17
75296;DHT22;64623;44.738;37.804;2022-12-10T08:34:03;20.09;56.68
75296;DHT22;64623;44.738;37.804;2022-12-10T08:36:43;20.71;54.55
75296;DHT22;64623;44.738;37.804;2022-12-10T08:39:14;20.25;55.87
75296;DHT22;64623;44.738;37.804;2022-12-10T08:41:50;20.50;54.00
75296;DHT22;64623;44.738;37.804;2022-12-10T08:44:21;20.58;53.67
75296;DHT22;64623;44.738;37.804;2022-12-10T08:46:51;21.01;51.44
75296;DHT22;64623;44.738;37.804;2022-12-10T08:49:23;20.81;51.33
75296;DHT22;64623;44.738;37.804;2022-12-10T08:51:59;20.96;50.93
75296;DHT22;64623;44.738;37.804;2022-12-10T08:54:31;20.70;52.34
75296;DHT22;64623;44.738;37.804;2022-12-10T08:57:03;20.40;53.51
75296;DHT22;64623;44.738;37.804;2022-12-10T08:59:38;20.92;52.75
75296;DHT22;64623;44.738;37.804;2022-12-10T09:02:11;20.64;51.84
75296;DHT22;64623;44.738;37.804;2022-12-10T09:04:41;20.60;52.79
75296;DHT22;64623;44.738;37.804;2022-12-10T09:07:12;20.05;55.58
75296;DHT22;64623;44.738;37.804;2022-12-10T09:09:46;20.55;53.92
75296;DHT22;64623;44.738;37.804;2022-12-10T09:12:15;20.49;52.56
75296;DHT22;64623;44.738;37.804;2022-12-10T09:14:48;20.39;54.01
75296;DHT22;64623;44.738;37.804;2022-12-10T09:17:19;20.66;52.69
75296;DHT22;64623;44.738;37.804;2022-12-10T09:19:49;21.13;51.36
75296;DHT22;64623;44.738;37.804;2022-12-10T09:22:23;20.60;52.23
75296;DHT22;64623;44.738;37.804;2022-12-10T09:24:54;21.00;51.53
75296;DHT22;64623;44.738;37.804;2022-12-10T09:27:30;21.03;50.81
75296;DHT22;64623;44.738;37.804;2022-12-10T09:29:59;21.39;50.98
75296;DHT22;64623;44.738;37.804;2022-12-10T09:32:30;20.18;54.01
75296;DHT22;64623;44.738;37.804;2022-12-10T09:35:06;18.97;59.35
75296;DHT22;64623;44.738;37.804;2022-12-10T09:37:41;19.03;59.51
75296;DHT22;64623;44.738;37.804;2022-12-10T09:40:18;19.29;57.26
75296;DHT22;64623;44.738;37.804;2022-12-10T09:43:09;19.30;57.80
75296;DHT22;64623;44.738;37.804;2022-12-10T09:46:10;19.55;57.45
75296;DHT22;64623;44.738;37.804;2022-12-10T09:51:23;19.62;57.03
75296;DHT22;64623;44.738;37.804;2022-12-10T09:54:00;19.56;57.62
75296;DHT22;64623;44.738;37.804;2022-12-10T09:56:36;19.62;58.50
75296;DHT22;64623;44.738;37.804;2022-12-10T09:59:25;19.22;58.58
75296;DHT22;64623;44.738;37.804;2022-12-10T10:07:43;17.81;66.72
75296;DHT22;64623;44.738;37.804;2022-12-10T10:18:46;17.59;68.18
75296;DHT22;64623;44.738;37.804;2022-12-10T10:21:26;17.80;66.81
75296;DHT22;64623;44.738;37.804;2022-12-10T10:23:57;17.18;70.42
75296;DHT22;64623;44.738;37.804;2022-12-10T10:26:27;16.91;72.29
75296;DHT22;64623;44.738;37.804;2022-12-10T10:29:00;16.40;75.09
75296;DHT22;64623;44.738;37.804;2022-12-10T10:31:32;16.28;77.20
75296;DHT22;64623;44.738;37.804;2022-12-10T10:34:05;16.29;76.85
75296;DHT22;64623;44.738;37.804;2022-12-10T10:36:41;16.12;78.68
75296;DHT22;64623;44.738;37.804;2022-12-10T10:39:27;16.01;80.24
75296;DHT22;64623;44.738;37.804;2022-12-10T10:41:59;15.85;81.95
75296;DHT22;64623;44.738;37.804;2022-12-10T10:44:35;16.08;79.89
75296;DHT22;64623;44.738;37.804;2022-12-10T10:50:01;15.95;78.43
75296;DHT22;64623;44.738;37.804;2022-12-10T10:52:37;16.02;78.37
75296;DHT22;64623;44.738;37.804;2022-12-10T10:55:31;16.18;77.02
75296;DHT22;64623;44.738;37.804;2022-12-10T10:58:03;16.33;74.96
75296;DHT22;64623;44.738;37.804;2022-12-10T11:00:32;16.43;73.45
75296;DHT22;64623;44.738;37.804;2022-12-10T11:03:06;17.74;67.68
75296;DHT22;64623;44.738;37.804;2022-12-10T11:05:36;18.32;64.53
75296;DHT22;64623;44.738;37.804;2022-12-10T11:08:17;18.50;63.45
75296;DHT22;64623;44.738;37.804;2022-12-10T11:10:57;18.48;62.76
75296;DHT22;64623;44.738;37.804;2022-12-10T11:13:33;18.34;62.47
75296;DHT22;64623;44.738;37.804;2022-12-10T11:16:22;18.64;61.54
75296;DHT22;64623;44.738;37.804;2022-12-10T11:18:59;18.73;61.18
75296;DHT22;64623;44.738;37.804;2022-12-10T11:22:33;18.96;60.57
75296;DHT22;64623;44.738;37.804;2022-12-10T11:37:11;16.89;72.07
75296;DHT22;64623;44.738;37.804;2022-12-10T11:55:28;15.46;77.60
75296;DHT22;64623;44.738;37.804;2022-12-10T11:58:25;15.31;80.31
75296;DHT22;64623;44.738;37.804;2022-12-10T12:12:42;14.97;81.81
75296;DHT22;64623;44.738;37.804;2022-12-10T12:18:26;14.97;81.84
75296;DHT22;64623;44.738;37.804;2022-12-10T12:21:01;14.94;82.90
75296;DHT22;64623;44.738;37.804;2022-12-10T12:26:54;14.84;80.63
75296;DHT22;64623;44.738;37.804;2022-12-10T12:29:33;14.87;81.34
75296;DHT22;64623;44.738;37.804;2022-12-10T12:32:25;14.77;79.63
75296;DHT22;64623;44.738;37.804;2022-12-10T12:35:14;14.75;79.74
75296;DHT22;64623;44.738;37.804;2022-12-10T12:37:55;14.78;78.73
75296;DHT22;64623;44.738;37.804;2022-12-10T12:40:29;14.70;78.89
75296;DHT22;64623;44.738;37.804;2022-12-10T12:43:10;14.69;80.25
75296;DHT22;64623;44.738;37.804;2022-12-10T12:45:45;14.72;78.53
75296;DHT22;64623;44.738;37.804;2022-12-10T12:53:52;14.56;77.99
75296;DHT22;64623;44.738;37.804;2022-12-10T13:00:18;14.53;77.10
75296;DHT22;64623;44.738;37.804;2022-12-10T13:05:40;14.45;77.15
75296;DHT22;64623;44.738;37.804;2022-12-10T13:08:23;14.49;77.63
75296;DHT22;64623;44.738;37.804;2022-12-10T13:11:00;14.49;76.68
75296;DHT22;64623;44.738;37.804;2022-12-10T13:13:39;14.44;76.49
75296;DHT22;64623;44.738;37.804;2022-12-10T13:27:23;14.36;75.28
75296;DHT22;64623;44.738;37.804;2022-12-10T13:30:00;14.33;75.67
75296;DHT22;64623;44.738;37.804;2022-12-10T13:43:19;14.25;76.16
75296;DHT22;64623;44.738;37.804;2022-12-10T13:46:51;14.27;75.31
75296;DHT22;64623;44.738;37.804;2022-12-10T13:49:26;14.24;76.28
75296;DHT22;64623;44.738;37.804;2022-12-10T13:52:07;14.22;74.54
75296;DHT22;64623;44.738;37.804;2022-12-10T13:55:20;14.21;74.76
75296;DHT22;64623;44.738;37.804;2022-12-10T14:00:57;14.24;73.86
75296;DHT22;64623;44.738;37.804;2022-12-10T14:06:33;14.28;73.19
75296;DHT22;64623;44.738;37.804;2022-12-10T14:12:14;14.23;72.26
75296;DHT22;64623;44.738;37.804;2022-12-10T14:14:50;14.22;72.84
75296;DHT22;64623;44.738;37.804;2022-12-10T14:17:54;14.25;71.05
75296;DHT22;64623;44.738;37.804;2022-12-10T14:20:48;14.26;71.14
75296;DHT22;64623;44.738;37.804;2022-12-10T14:23:32;14.26;71.11
75296;DHT22;64623;44.738;37.804;2022-12-10T14:26:13;14.24;70.72
75296;DHT22;64623;44.738;37.804;2022-12-10T14:28:50;14.26;70.37
75296;DHT22;64623;44.738;37.804;2022-12-10T14:31:57;14.26;68.68
75296;DHT22;64623;44.738;37.804;2022-12-10T14:34:29;14.28;68.57
75296;DHT22;64623;44.738;37.804;2022-12-10T14:37:03;14.33;67.77
75296;DHT22;64623;44.738;37.804;2022-12-10T14:39:38;14.33;68.33
75296;DHT22;64623;44.738;37.804;2022-12-10T14:42:14;14.35;69.45
75296;DHT22;64623;44.738;37.804;2022-12-10T14:44:54;14.33;66.15
75296;DHT22;64623;44.738;37.804;2022-12-10T14:47:26;14.34;66.30
75296;DHT22;64623;44.738;37.804;2022-12-10T14:49:56;14.33;66.62
75296;DHT22;64623;44.738;37.804;2022-12-10T14:52:32;14.34;66.41
75296;DHT22;64623;44.738;37.804;2022-12-10T14:55:16;14.37;65.91
75296;DHT22;64623;44.738;37.804;2022-12-10T14:58:17;14.40;64.64
75296;DHT22;64623;44.738;37.804;2022-12-10T15:00:51;14.38;64.50
75296;DHT22;64623;44.738;37.804;2022-12-10T15:03:30;14.37;65.66
75296;DHT22;64623;44.738;37.804;2022-12-10T15:06:02;14.36;66.43
75296;DHT22;64623;44.738;37.804;2022-12-10T15:08:36;14.35;66.05
75296;DHT22;64623;44.738;37.804;2022-12-10T15:11:06;14.33;66.43
75296;DHT22;64623;44.738;37.804;2022-12-10T15:13:47;14.34;66.55
75296;DHT22;64623;44.738;37.804;2022-12-10T15:16:30;14.33;66.52
75296;DHT22;64623;44.738;37.804;2022-12-10T15:19:19;14.32;65.75
75296;DHT22;64623;44.738;37.804;2022-12-10T15:21:51;14.33;64.05
75296;DHT22;64623;44.738;37.804;2022-12-10T15:24:40;14.35;65.04
75296;DHT22;64623;44.738;37.804;2022-12-10T15:27:24;14.34;65.50
75296;DHT22;64623;44.738;37.804;2022-12-10T15:29:55;14.29;66.75
75296;DHT22;64623;44.738;37.804;2022-12-10T15:32:26;14.27;66.85
75296;DHT22;64623;44.738;37.804;2022-12-10T15:34:59;14.28;66.53
75296;DHT22;64623;44.738;37.804;2022-12-10T15:37:36;14.27;65.73
75296;DHT22;64623;44.738;37.804;2022-12-10T15:40:29;14.27;65.53
75296;DHT22;64623;44.738;37.804;2022-12-10T15:43:33;14.28;65.31
75296;DHT22;64623;44.738;37.804;2022-12-10T15:46:04;14.34;64.60
75296;DHT22;64623;44.738;37.804;2022-12-10T15:48:34;14.35;63.88
75296;DHT22;64623;44.738;37.804;2022-12-10T15:51:07;14.37;62.99
75296;DHT22;64623;44.738;37.804;2022-12-10T15:53:39;14.38;62.27
75296;DHT22;64623;44.738;37.804;2022-12-10T15:56:26;14.39;62.89
75296;DHT22;64623;44.738;37.804;2022-12-10T15:59:02;14.38;62.50
75296;DHT22;64623;44.738;37.804;2022-12-10T16:01:32;14.39;62.53
75296;DHT22;64623;44.738;37.804;2022-12-10T16:04:01;14.40;62.37
75296;DHT22;64623;44.738;37.804;2022-12-10T16:06:31;14.38;62.30
75296;DHT22;64623;44.738;37.804;2022-12-10T16:09:00;14.38;60.61
75296;DHT22;64623;44.738;37.804;2022-12-10T16:11:29;14.40;61.50
75296;DHT22;64623;44.738;37.804;2022-12-10T16:14:01;14.42;61.19
75296;DHT22;64623;44.738;37.804;2022-12-10T16:16:33;14.43;60.83
75296;DHT22;64623;44.738;37.804;2022-12-10T16:19:08;14.44;61.44
75296;DHT22;64623;44.738;37.804;2022-12-10T16:21:37;14.45;63.33
75296;DHT22;64623;44.738;37.804;2022-12-10T16:24:07;14.43;60.90
75296;DHT22;64623;44.738;37.804;2022-12-10T16:26:37;14.42;63.37
75296;DHT22;64623;44.738;37.804;2022-12-10T16:29:08;14.47;63.27
75296;DHT22;64623;44.738;37.804;2022-12-10T16:31:39;14.44;62.24
75296;DHT22;64623;44.738;37.804;2022-12-10T16:34:08;14.44;62.04
75296;DHT22;64623;44.738;37.804;2022-12-10T16:36:38;14.43;62.15
75296;DHT22;64623;44.738;37.804;2022-12-10T16:39:07;14.44;63.16
75296;DHT22;64623;44.738;37.804;2022-12-10T16:41:37;14.48;61.21
75296;DHT22;64623;44.738;37.804;2022-12-10T16:44:09;14.50;61.86
75296;DHT22;64623;44.738;37.804;2022-12-10T16:46:39;14.51;62.51
75296;DHT22;64623;44.738;37.804;2022-12-10T16:49:11;14.52;63.27
75296;DHT22;64623;44.738;37.804;2022-12-10T16:51:40;14.49;62.60
75296;DHT22;64623;44.738;37.804;2022-12-10T16:54:12;14.50;63.50
75296;DHT22;64623;44.738;37.804;2022-12-10T16:56:43;14.52;64.73
75296;DHT22;64623;44.738;37.804;2022-12-10T16:59:13;14.50;64.17
75296;DHT22;64623;44.738;37.804;2022-12-10T17:01:43;14.52;64.79
75296;DHT22;64623;44.738;37.804;2022-12-10T17:04:13;14.56;61.91
75296;DHT22;64623;44.738;37.804;2022-12-10T17:06:43;14.59;62.76
75296;DHT22;64623;44.738;37.804;2022-12-10T17:09:15;14.58;63.01
75296;DHT22;64623;44.738;37.804;2022-12-10T17:12:05;14.55;61.80
75296;DHT22;64623;44.738;37.804;2022-12-10T17:14:39;14.52;62.28
75296;DHT22;64623;44.738;37.804;2022-12-10T17:17:13;14.54;62.23
75296;DHT22;64623;44.738;37.804;2022-12-10T17:19:43;14.54;62.41
75296;DHT22;64623;44.738;37.804;2022-12-10T17:22:21;14.54;63.31
75296;DHT22;64623;44.738;37.804;2022-12-10T17:24:55;14.53;63.14
75296;DHT22;64623;44.738;37.804;2022-12-10T17:27:30;14.55;61.78
75296;DHT22;64623;44.738;37.804;2022-12-10T17:30:15;14.56;62.05
75296;DHT22;64623;44.738;37.804;2022-12-10T17:32:50;14.55;61.89
75296;DHT22;64623;44.738;37.804;2022-12-10T17:35:40;14.53;62.59
75296;DHT22;64623;44.738;37.804;2022-12-10T17:38:23;14.50;62.19
75296;DHT22;64623;44.738;37.804;2022-12-10T17:40:57;14.54;62.11
75296;DHT22;64623;44.738;37.804;2022-12-10T17:43:32;14.54;62.07
75296;DHT22;64623;44.738;37.804;2022-12-10T17:46:09;14.51;62.51
75296;DHT22;64623;44.738;37.804;2022-12-10T17:48:46;14.53;62.46
75296;DHT22;64623;44.738;37.804;2022-12-10T17:51:45;14.53;61.99
75296;DHT22;64623;44.738;37.804;2022-12-10T17:54:20;14.54;61.76
75296;DHT22;64623;44.738;37.804;2022-12-10T17:56:55;14.54;62.53
75296;DHT22;64623;44.738;37.804;2022-12-10T17:59:32;14.49;63.30
75296;DHT22;64623;44.738;37.804;2022-12-10T18:02:10;14.48;63.23
75296;DHT22;64623;44.738;37.804;2022-12-10T18:04:47;14.45;62.79